HE38 weather

Wadi Abu Rish Airport
Red Sea Governorate, Egypt

Public forecast

Using degrees Celsius for public forecast. Weather courtesy of forecast.io.

Closest aviation weather report (METAR) to Wadi Abu Rish Airport

Closest report is Cairo International Airport, 70.5 nm (130.6 km) NNW. Retrieved 2019/10/20 20:00 UTC (44 minutes ago):

HECA 202000Z 08009KT CAVOK 27/14 Q1016

Closest aviation forecast (TAF) to Wadi Abu Rish Airport

Closest forecast is Cairo International Airport, 70.5 nm (130.6 km) NNW. Retrieved 2019/10/20 18:43 UTC (2 hours ago):

TAF HECA 201700Z 2018/2124 07013KT CAVOK TEMPO 2101/2106 12006KT 4000 HZ NSC BECMG 2106/2108 03010KT 9999 SCT025